• Join FlightAware (Why Join?)
  • Login
  • US Flag 
06:06PM EDT


 

Airport Tracker/Info


-or-


 

Live Flight TrackerFlight Track Log ✈ UAL479 ✈ 14-Apr-2013 ✈ KORD - KIAH

Flight Track Log - Related Links

Times and Time Zones

All times are in EDT time to prevent confusion due to time zone crossing. See the UAL479 flight status page for this flight to view local times or setup timezone preferences in your user account.

Time Position Orientation Groundspeed Altitude Reporting Facility
EDT Latitude Longitude Course Direction KTS MPH feet Rate Location/Type
10:42AM 41.9667 -87.8667 189° South 156 180 2,200  Level Chicago TRACON
10:43AM 41.9333 -87.8167 132° Southeast 213 245 4,300 1,500 Climbing Chicago TRACON
10:44AM 41.8667 -87.8000 169° South 231 266 5,100 600 Climbing Chicago TRACON
10:45AM 41.6409 -88.1582 191° South  Level Estimated
10:45AM 41.8000 -87.7833 169° South 234 269 5,600  Level Chicago TRACON
10:46AM 41.5557 -88.2206 189° South  Level Estimated
10:47AM 41.4704 -88.2829 197° South  Level Estimated
10:48AM 41.3851 -88.3451 189° South  Level Estimated
10:48AM 41.6617 -87.8647 204° Southwest 258 297 12,300  Level Chicago Center
10:49AM 41.5939 -87.9092 206° Southwest 269 310 14,900 2,340 Climbing Chicago Center
10:50AM 41.5214 -87.9558 206° Southwest 286 329 17,200 2,040 Climbing Chicago Center
10:51AM 41.4447 -88.0058 206° Southwest 312 359 19,100 1,560 Climbing Chicago Center
10:52AM 41.3436 -88.0517 199° South 356 410 20,500 1,620 Climbing Chicago Center
10:53AM 41.2428 -88.0861 194° South 375 432 22,500 1,800 Climbing Chicago Center
10:54AM 41.1392 -88.1156 192° South 379 436 24,200 1,500 Climbing Chicago Center
10:55AM 41.0314 -88.1472 192° South 392 451 25,600 1,380 Climbing Chicago Center
10:56AM 40.9219 -88.1783 192° South 401 461 27,100 1,560 Climbing Chicago Center
10:57AM 40.7883 -88.2167 192° South 409 471 28,900 1,380 Climbing Chicago Center
10:58AM 40.6758 -88.2486 192° South 414 476 30,000 480 Climbing Chicago Center
10:59AM 40.5592 -88.2794 191° South 423 487 30,000  Level Chicago Center
11:00AM 40.4400 -88.3161 193° South 437 503 30,000  Level Chicago Center
11:01AM 40.3242 -88.3539 194° South 433 498 30,000  Level Chicago Center
11:02AM 40.2178 -88.4225 206° Southwest 428 493 30,000  Level Chicago Center
11:03AM 40.1239 -88.4900 209° Southwest 422 486 30,000  Level Kansas City Center
11:04AM 39.9958 -88.5856 210° Southwest 431 496 30,000  Level Kansas City Center
11:05AM 39.8894 -88.6631 209° Southwest 435 501 30,000  Level Kansas City Center
11:06AM 39.7847 -88.7392 209° Southwest 432 497 30,000 -60 Level Kansas City Center
11:07AM 39.6783 -88.8172 209° Southwest 435 501 29,900 -540 Descending Kansas City Center
11:08AM 39.5733 -88.8939 209° Southwest 433 498 29,000 -900 Descending Kansas City Center
11:09AM 39.4672 -88.9703 209° Southwest 434 499 28,100 -480 Descending Kansas City Center
11:10AM 39.3583 -89.0492 209° Southwest 432 497 28,000 -60 Descending Kansas City Center
11:11AM 39.2542 -89.1247 209° Southwest 431 496 28,000  Level Kansas City Center
11:12AM 39.1322 -89.2114 209° Southwest 425 489 28,000  Level Kansas City Center
11:13AM 39.0306 -89.2856 210° Southwest 421 484 28,000  Level Kansas City Center
11:14AM 38.9200 -89.3644 209° Southwest 423 487 28,000  Level Kansas City Center
11:15AM 38.8189 -89.4364 209° Southwest 418 481 28,000  Level Kansas City Center
11:16AM 38.7153 -89.5092 209° Southwest 421 484 28,000  Level Kansas City Center
11:17AM 38.6053 -89.5872 209° Southwest 421 484 28,000  Level Kansas City Center
11:18AM 38.5011 -89.6594 208° Southwest 422 486 28,000  Level Kansas City Center
11:19AM 38.4108 -89.7217 208° Southwest 419 482 28,000  Level Kansas City Center
11:20AM 38.2864 -89.8103 209° Southwest 423 487 28,000  Level Kansas City Center
11:21AM 38.1839 -89.8822 209° Southwest 420 483 28,000  Level Kansas City Center
11:22AM 38.0747 -89.9586 209° Southwest 416 479 28,000  Level Kansas City Center
11:24AM 37.9722 -90.0278 208° Southwest 417 480 28,000  Level Kansas City Center
11:25AM 37.8708 -90.0983 209° Southwest 416 479 28,000  Level Kansas City Center
11:26AM 37.7753 -90.1653 209° Southwest 419 482 28,000  Level Kansas City Center
11:27AM 37.6714 -90.2369 209° Southwest 422 486 28,000  Level Kansas City Center
11:28AM 37.5625 -90.2883 201° Southwest 416 479 28,000  Level Kansas City Center
11:29AM 37.4292 -90.3517 201° Southwest 423 487 28,000  Level Kansas City Center
11:29AM 37.3672 -90.3803 200° South 430 495 28,000 -240 Level Memphis Center
11:30AM 37.2589 -90.4325 201° Southwest 430 495 27,700 -660 Descending Memphis Center
11:31AM 37.1506 -90.4819 200° South 430 495 26,700 -900 Descending Memphis Center
11:32AM 37.0400 -90.5336 200° South 430 495 26,000 -360 Descending Memphis Center
11:33AM 36.9358 -90.5828 201° Southwest 420 483 26,000  Level Memphis Center
11:34AM 36.8294 -90.6292 199° South 414 476 26,000  Level Memphis Center
11:35AM 36.7253 -90.6781 201° Southwest 409 471 26,000  Level Memphis Center
11:36AM 36.6189 -90.7267 200° South 409 471 26,000  Level Memphis Center
11:37AM 36.5144 -90.7753 201° Southwest 409 471 26,000  Level Memphis Center
11:38AM 36.4058 -90.8236 200° South 409 471 26,000  Level Memphis Center
11:39AM 36.3036 -90.8719 201° Southwest 409 471 26,000  Level Memphis Center
11:40AM 36.1950 -90.9228 201° Southwest 409 471 26,000  Level Memphis Center
11:41AM 36.0883 -90.9786 203° Southwest 414 476 26,000  Level Memphis Center
11:42AM 35.9858 -91.0369 205° Southwest 414 476 26,000  Level Memphis Center
11:43AM 35.8811 -91.0947 204° Southwest 419 482 26,000  Level Memphis Center
11:44AM 35.7767 -91.1478 202° Southwest 419 482 26,000  Level Memphis Center
11:45AM 35.6803 -91.2081 207° Southwest 413 475 26,000  Level Memphis Center
11:46AM 35.5756 -91.2631 203° Southwest 406 467 26,000  Level Memphis Center
11:47AM 35.4625 -91.3258 204° Southwest 406 467 26,000  Level Memphis Center
11:48AM 35.3683 -91.3756 203° Southwest 406 467 26,000  Level Memphis Center
11:49AM 35.2739 -91.4481 212° Southwest 406 467 26,000  Level Memphis Center
11:50AM 35.1772 -91.5256 213° Southwest 413 475 26,000  Level Memphis Center
11:51AM 35.0825 -91.6006 213° Southwest 413 475 26,000  Level Memphis Center
11:52AM 34.9839 -91.6700 210° Southwest 419 482 26,000  Level Memphis Center
11:53AM 34.8622 -91.7161 197° South 419 482 26,000  Level Memphis Center
11:54AM 34.7556 -91.7525 196° South 419 482 26,000  Level Memphis Center
11:55AM 34.6425 -91.7908 196° South 414 476 26,000  Level Memphis Center
11:56AM 34.5292 -91.8294 196° South 419 482 26,000  Level Memphis Center
11:57AM 34.4203 -91.8678 196° South 419 482 26,000  Level Memphis Center
11:58AM 34.3092 -91.9061 196° South 414 476 26,000  Level Memphis Center
11:59AM 34.2003 -91.9444 196° South 414 476 26,000  Level Memphis Center
12:00PM 34.0933 -91.9775 194° South 414 476 26,000  Level Memphis Center
12:01PM 33.9989 -92.0133 197° South 409 471 26,000  Level Memphis Center
12:03PM 33.7847 -92.0858 196° South 402 463 26,000  Level Fort Worth Center
12:04PM 33.6758 -92.1222 196° South 402 463 26,000  Level Fort Worth Center
12:05PM 33.5647 -92.1589 195° South 402 463 26,000  Level Fort Worth Center
12:06PM 33.4575 -92.1928 195° South 409 471 26,000  Level Fort Worth Center
12:07PM 33.3525 -92.2261 195° South 409 471 26,000  Level Fort Worth Center
12:08PM 33.2497 -92.2619 196° South 398 458 26,000  Level Fort Worth Center
12:09PM 33.1383 -92.2983 195° South 398 458 26,000  Level Fort Worth Center
12:10PM 33.0333 -92.3317 195° South 398 458 26,000  Level Fort Worth Center
12:11PM 32.9264 -92.3672 196° South 393 452 26,000  Level Fort Worth Center
12:12PM 32.8336 -92.3972 195° South 393 452 26,000  Level Fort Worth Center
12:13PM 32.7264 -92.4306 195° South 393 452 26,000  Level Fort Worth Center
12:16PM 32.4664 -92.5172 196° South 395 455 26,000  Level Houston Center
12:17PM 32.3594 -92.5503 195° South 398 458 26,000 -60 Level Houston Center
12:18PM 32.2539 -92.5856 196° South 396 456 25,900 -60 Descending Houston Center
12:19PM 32.1231 -92.6269 195° South 409 471 25,900  Level Houston Center
12:20PM 32.0156 -92.6628 196° South 404 465 26,000  Climbing Houston Center
12:21PM 31.9194 -92.7258 209° Southwest 401 461 26,000 -60 Level Houston Center
12:22PM 31.8339 -92.8086 219° Southwest 398 458 25,900  Descending Houston Center
12:23PM 31.7464 -92.8936 220° Southwest 405 466 26,000  Climbing Houston Center
12:24PM 31.6592 -92.9786 220° Southwest 407 468 25,900 -60 Descending Houston Center
12:25PM 31.5539 -93.0831 220° Southwest 412 474 25,900  Level Houston Center
12:26PM 31.4650 -93.1658 218° Southwest 408 470 26,000  Climbing Houston Center
12:27PM 31.3778 -93.2500 219° Southwest 408 470 26,000  Level Houston Center
12:28PM 31.2886 -93.3364 220° Southwest 421 484 26,000 -240 Level Houston Center
12:29PM 31.1897 -93.4289 219° Southwest 440 506 25,600 -540 Descending Houston Center
12:30PM 31.0936 -93.5214 220° Southwest 447 514 24,900 -300 Descending Houston Center
12:31PM 30.9786 -93.6308 219° Southwest 447 514 25,000  Climbing Houston Center
12:32PM 30.8836 -93.7206 219° Southwest 444 511 25,000 -60 Level Houston Center
12:33PM 30.7892 -93.8100 219° Southwest 442 509 24,900 -840 Descending Houston Center
12:34PM 30.6950 -93.8992 219° Southwest 440 506 23,400 -1,980 Descending Houston Center
12:35PM 30.6025 -93.9853 219° Southwest 433 498 20,900 -2,460 Descending Houston Center
12:36PM 30.5078 -94.0739 219° Southwest 417 480 18,700 -2,100 Descending Houston Center
12:37PM 30.4039 -94.1703 219° Southwest 393 452 16,500 -1,920 Descending Houston Center
12:38PM 30.3286 -94.2408 219° Southwest 379 436 14,500 -1,920 Descending Houston Center
12:39PM 30.2481 -94.3158 219° Southwest 374 430 12,700 -1,980 Descending Houston Center
12:40PM 30.1900 -94.4092 234° Southwest 346 398 10,600 -1,380 Descending Houston Center
12:41PM 30.1711 -94.5156 258° West 326 375 10,000 -300 Descending Houston Center
12:42PM 30.1539 -94.6194 259° West 322 371 10,000  Level Houston Center
12:43PM 30.1383 -94.7161 259° West 322 371 10,000  Level Houston Center
12:44PM 30.1189 -94.8219 258° West 297 342 10,000  Level Houston Center
12:46PM 30.1053 -94.9261 261° West 300 345 10,000 -60 Level Houston Center
12:46PM 30.1056 -95.0144 270° West 288 331 9,900 -540 Descending Houston Center
12:47PM 30.1050 -95.0992 270° West 261 300 9,000 -1,140 Descending Houston Center
12:48PM 30.1067 -95.1858 271° West 261 300 7,600 -1,260 Descending Houston Center
12:50PM 30.1072 -95.2800 270° West 261 300 6,400 -720 Descending Houston Center
12:51PM 30.1072 -95.3686 270° West 258 297 6,000 -660 Descending Houston Center
12:52PM 30.1069 -95.4394 270° West 255 293 5,200 -1,020 Descending Houston Center
12:53PM 30.1061 -95.5242 269° West 256 295 4,200 -960 Descending Houston Center
12:54PM 30.1069 -95.6036 271° West 249 287 3,300 -600 Descending Houston Center
12:55PM 30.0753 -95.6703 241° Southwest 245 282 3,000 -240 Descending Houston Center
12:55PM 30.0736 -95.6708 196° South 261 300 3,000  Level Houston Center
12:56PM 30.0133 -95.6606 172° South 231 266 3,000  Level Houston Center
12:57PM 30.0061 -95.5769 96° East 238 274 3,000 -180 Level Houston Center
12:58PM 30.0061 -95.5072 90° East 237 273 2,700 -360 Descending Houston Center